Domov               UVHVVR             MKGP            O straneh              
ZDRAVSTVENO VARSTVO RASTLIN
  MREŽA AGROMET. POSTAJ
 ► PROGNOSTIČNA OBVESTILA
AGROMETEOROLOŠKI PODATKI -
ARSO
OBVLADOVANJE TVEGANJ ZARADI
NEUGODNIH VREMENSKIH RAZMER
  ► NARAVNE NESREČE
  ► SUŠA/MOČA
  ► NAMAKANJE
  ► ŽLED (gozdarstvo)
KARTOGRAFSKI PRIKAZI
SPLETNE POVEZAVE
PROJEKTI IN PUBLIKACIJE

AGROMETEOROLOŠKA MREŽA: VREMENSKE POSTAJE IN FENOLOŠKA OPAZOVANJA

Pregled podatkov za lokacijo Črmljenšak, meteorološka postaja 25166

Pregled senzorjev na lokaciji

ID Ime Zadnja
vrednost
Datum
zadnje
spremembe
Tip
senzorja
4041 Omočenost lista (U) 0 U 24.8.2017 08:30 A730WET
4043 Padavine 0.2 mm (mm) 0 mm 24.8.2017 08:30 Generic 0.2 mm
4048 Temperatura 2 m ( °C) 20,83 °C 24.8.2017 08:30 Generic -40 - +60 °C
4049 Relativna vlaga 2 m (% RH) 68,69 % RH 24.8.2017 08:30 Generic 0 - 100 %

Pregled podatkov zadnjih 24 ur

Zap.
št.
Datum in čas Črmljenšak
Omočenost
lista
Padavine
0.2
mm
Relativna
vlaga
2
m
Temperatura
2
m
0 24.8.2017 07:30 0 0 68,69 20,83
1 24.8.2017 07:00 0 0 72,84 19,41
2 24.8.2017 06:30 0 0 79,07 16,53
3 24.8.2017 06:00 0 0 86,37 14,09
4 24.8.2017 05:30 0 0 88,11 12,65
5 24.8.2017 05:00 0 0 82,2 13,53
6 24.8.2017 04:30 0 0 80,68 13,77
7 24.8.2017 04:00 0 0 81,17 14,11
8 24.8.2017 03:30 0 0 82,95 14,75
9 24.8.2017 03:00 0 0 82,98 14,14
10 24.8.2017 02:30 0 0 81,44 14,8
11 24.8.2017 02:00 0 0 80,02 15,29
12 24.8.2017 01:30 0 0 75,87 16,41
13 24.8.2017 01:00 0 0 79,83 15,82
14 24.8.2017 00:30 0 0 81,12 16,39
15 24.8.2017 00:00 0 0 79,1 16,7
16 23.8.2017 23:30 0 0 77,58 16,19
17 23.8.2017 23:00 0 0 66,47 18,34
18 23.8.2017 22:30 0 0 70,57 18,14
19 23.8.2017 22:00 0 0 70,13 17,78
20 23.8.2017 21:30 0 0 65,93 18,36
21 23.8.2017 21:00 0 0 66,91 20,98
22 23.8.2017 20:30 0 0 64,08 22,34
23 23.8.2017 20:00 0 0 58,88 23,08
24 23.8.2017 19:30 0 0 56 24,69
25 23.8.2017 19:00 0 0 52,36 26,28
26 23.8.2017 18:30 0 0 48,55 27,99
27 23.8.2017 18:00 0 0 44 27,74
28 23.8.2017 17:30 0 0 41,68 28,33
29 23.8.2017 17:00 0 0 40,29 30,09
30 23.8.2017 16:30 0 0 39,39 30,57
31 23.8.2017 16:00 0 0 40,39 31,87
32 23.8.2017 15:30 0 0 40,34 30,87
33 23.8.2017 15:00 0 0 39,1 31,43
34 23.8.2017 14:30 0 0 40,93 30,18
35 23.8.2017 14:00 0 0 42,32 31,7
36 23.8.2017 13:30 0 0 44,59 29,62
37 23.8.2017 13:00 0 0 42,3 29,18
38 23.8.2017 12:30 0 0 40,29 28,99
39 23.8.2017 12:00 0 0 43,13 28,74
40 23.8.2017 11:30 0 0 45,69 28,4
41 23.8.2017 11:00 0 0 45,93 31,6
42 23.8.2017 10:30 0 0 46,79 32,11
43 23.8.2017 10:00 0 0 48,45 33,06
44 23.8.2017 09:30 0 0 53,46 32,04
45 23.8.2017 09:00 0 0 56,31 25,54
© 2011 Ministrstvo za kmetijstvo, gozdarstvo in prehrano. Vse pravice pridržane.